createdAt,value
2023-04-22T10:36:06.110Z,22.00
2023-04-22T10:37:23.404Z,22.20
2023-04-22T10:38:23.375Z,22.28
2023-04-22T10:39:23.383Z,22.27
2023-04-22T10:40:23.361Z,22.30
2023-04-22T10:41:23.347Z,22.25
2023-04-22T10:42:23.342Z,22.20
2023-04-22T10:43:23.302Z,22.07
2023-04-22T10:44:23.310Z,22.17
2023-04-22T10:45:23.272Z,22.21
2023-04-22T10:46:23.301Z,22.33
2023-04-22T10:47:23.305Z,22.39
2023-04-22T10:48:23.255Z,22.42
2023-04-22T10:49:23.264Z,22.39
2023-04-22T10:50:23.215Z,22.46
2023-04-22T10:51:23.214Z,22.54
2023-04-22T10:52:23.218Z,22.49
2023-04-22T10:53:23.185Z,22.57
2023-04-22T10:54:23.194Z,22.64
2023-04-22T10:55:23.160Z,22.67
2023-04-22T10:56:23.175Z,22.58
2023-04-22T10:57:23.136Z,22.73
2023-04-22T10:58:23.152Z,22.72
2023-04-22T10:59:23.099Z,22.80
2023-04-22T11:00:23.586Z,22.61
2023-04-22T11:01:23.118Z,22.79
2023-04-22T11:02:23.095Z,22.73
2023-04-22T11:03:23.196Z,22.73
2023-04-22T11:04:23.209Z,22.86
2023-04-22T11:05:25.889Z,22.97
2023-04-22T11:10:26.396Z,22.61
2023-04-22T11:11:26.328Z,22.73
2023-04-22T11:12:26.319Z,22.80
2023-04-22T11:13:26.303Z,22.72
2023-04-22T11:14:26.320Z,22.94
2023-04-22T11:15:26.312Z,22.95
2023-04-22T11:16:26.306Z,22.98
2023-04-22T11:17:26.286Z,23.12
2023-04-22T11:18:26.275Z,22.98
2023-04-22T11:19:26.226Z,23.33
2023-04-22T11:20:26.259Z,23.38
2023-04-22T11:21:26.226Z,23.39
2023-04-22T11:22:26.207Z,23.36
2023-04-22T11:23:26.184Z,23.09
2023-04-22T11:24:26.197Z,23.00
2023-04-22T11:25:26.177Z,22.98
2023-04-22T11:26:26.157Z,22.91
2023-04-22T11:27:26.169Z,23.01
2023-04-22T11:28:26.155Z,22.91
2023-04-22T11:29:26.224Z,23.09
2023-04-22T11:30:26.131Z,23.40
2023-04-22T11:31:26.094Z,23.61
2023-04-22T11:32:26.120Z,23.38
2023-04-22T11:33:26.081Z,23.48
2023-04-22T11:34:26.051Z,24.03
2023-04-22T11:35:26.048Z,24.39
2023-04-22T11:36:26.035Z,23.95
2023-04-22T11:37:26.033Z,23.51
2023-04-22T11:38:26.060Z,23.55
2023-04-22T11:39:26.013Z,24.00
2023-04-22T11:40:30.161Z,23.95
2023-04-22T11:41:25.993Z,24.06
2023-04-22T11:42:25.982Z,23.97
2023-04-22T11:43:25.943Z,24.03
2023-04-22T11:44:25.938Z,23.90
2023-04-22T11:45:25.955Z,23.51
2023-04-22T11:46:25.966Z,23.47
2023-04-22T11:47:25.933Z,23.70
2023-04-22T11:48:25.888Z,23.60
2023-04-22T11:49:25.887Z,23.72
2023-04-22T11:50:25.879Z,23.63
2023-04-22T11:51:25.848Z,23.68
2023-04-22T11:52:25.862Z,23.70
2023-04-22T11:53:25.828Z,23.69
2023-04-22T11:54:25.838Z,23.58
2023-04-22T11:55:25.819Z,23.70
2023-04-22T11:56:25.816Z,23.01
2023-04-22T11:57:25.800Z,23.00
2023-04-22T11:58:25.798Z,23.07
2023-04-22T11:59:25.784Z,22.88
2023-04-22T12:00:25.800Z,22.90
2023-04-22T12:01:25.751Z,22.98
2023-04-22T12:02:25.905Z,23.23
2023-04-22T12:03:25.845Z,23.55
2023-04-22T12:04:25.762Z,23.58
2023-04-22T12:05:25.744Z,23.47
2023-04-22T12:06:25.706Z,23.63
2023-04-22T12:07:25.683Z,24.03
2023-04-22T12:08:25.661Z,24.31
2023-04-22T12:09:25.704Z,24.52
2023-04-22T12:10:25.669Z,24.46
2023-04-22T12:11:25.617Z,24.34
2023-04-22T12:12:25.612Z,24.37
2023-04-22T12:13:25.593Z,24.28
2023-04-22T12:14:25.609Z,24.35
2023-04-22T12:15:25.638Z,24.55
2023-04-22T12:16:25.568Z,24.49
2023-04-22T12:17:25.629Z,24.52
2023-04-22T12:18:25.568Z,24.45
2023-04-22T12:22:05.035Z,23.10
2023-04-22T12:23:04.997Z,23.13
2023-04-22T12:26:13.203Z,23.46
2023-04-22T12:27:13.177Z,23.31
2023-04-22T12:28:13.181Z,23.33
2023-04-22T12:29:13.161Z,23.40
2023-04-22T12:30:13.182Z,23.55
2023-04-22T12:31:13.173Z,23.39
2023-04-22T12:32:13.174Z,23.15
2023-04-22T12:33:13.144Z,23.04
2023-04-22T12:34:13.147Z,23.13
2023-04-22T12:35:13.148Z,23.32
2023-04-22T12:36:13.141Z,23.40
2023-04-22T12:37:13.125Z,23.39
2023-04-22T12:38:13.130Z,23.40
2023-04-22T12:39:13.110Z,23.61
2023-04-22T12:40:13.117Z,23.63
2023-04-22T12:41:13.108Z,23.78
2023-04-22T12:42:13.092Z,23.58
2023-04-22T12:43:13.084Z,23.58
2023-04-22T12:44:13.084Z,23.75
2023-04-22T12:45:13.066Z,23.78
2023-04-22T12:46:13.068Z,23.53
2023-04-22T12:47:13.052Z,23.58
2023-04-22T12:48:13.051Z,24.05
2023-04-22T12:49:13.037Z,24.06
2023-04-22T12:50:13.020Z,23.75
2023-04-22T12:51:13.014Z,23.38
2023-04-22T12:52:13.025Z,23.31
2023-04-22T15:01:52.257Z,21.22
2023-04-22T15:02:52.214Z,21.53
